Nearby METAR Reports

 

KDVT - Phoenix/Deer Vly, Arizona, USA
Distance from station: SSE 14mi, 22km
Updated: 03/30/2020 5:53am
Clear
Clear
 Wind from calm
Wind: Calm
Temperature: 46°F , 8°C
Dew Point: 36°F , 2°C
Humidity: 66%
Barometer: 30.07 inHg , 1018.3 hPa
Clouds: Clear
Visibility: 10 miles , 16 km
2020/03/30 12:53 KDVT 301253Z AUTO 00000KT 10SM CLR 08/02 A3007 RMK AO2 SLP171 T00780022
KSDL - Scottsdale, Arizona, USA
Distance from station: SE 22mi, 35km
Updated: 03/30/2020 5:53am
Clear
Clear
 Wind from calm
Wind: Calm
Temperature: 48°F , 9°C
Dew Point: 36°F , 2°C
Humidity: 62%
Barometer: 30.07 inHg , 1018.3 hPa
Clouds: Clear
Visibility: 10 miles , 16 km
2020/03/30 12:53 KSDL 301253Z 00000KT 10SM CLR 09/02 A3007 RMK AO2 SLP171 T00940017
 
KGEU - Glendale, Arizona, USA
Distance from station: SSW 25mi, 41km
Updated: 03/30/2020 5:50am
Few Clouds
Few Clouds
 Wind from WNW
Wind: WNW 3 mph , 6 km/h
Temperature: 52°F , 11°C
Dew Point: 36°F , 2°C
Humidity: 54%
Barometer: 30.08 inHg , 1018.6 hPa
Clouds: Few Clouds
Visibility: 10 miles , 16 km
Cloud details: Few Clouds 20000 ft
2020/03/30 12:50 KGEU 301250Z 30003KT 10SM FEW200 11/02 A3008 RMK FIRST
KLUF - Luke Afb/Glendal, Arizona, USA
Distance from station: SSW 28mi, 45km
Updated: 03/30/2020 5:58am
Clear
Clear
 Wind from NNW
Wind: NNW 6 mph , 9 km/h
Temperature: 50°F , 10°C
Wind Chill: 48°F , 9°C
Dew Point: 37°F , 3°C
Humidity: 62%
Barometer: 30.05 inHg , 1017.6 hPa
Clouds: Clear
Visibility: 10 miles , 16 km
2020/03/30 12:58 KLUF 301258Z AUTO 33005KT 10SM CLR 10/03 A3005 RMK AO2 SLP172 T00970025 $
 
KPHX - Phoenix/Sky Hrbr, Arizona, USA
Distance from station: SSE 31mi, 51km
Updated: 03/30/2020 5:51am
Few Clouds
Few Clouds
 Wind from calm
Wind: Calm
Temperature: 54°F , 12°C
Dew Point: 37°F , 3°C
Humidity: 54%
Barometer: 30.05 inHg , 1017.6 hPa
Clouds: Few Clouds
Visibility: 10 miles , 16 km
Cloud details: Few Clouds 18000 ft
2020/03/30 12:51 KPHX 301251Z 00000KT 10SM FEW180 12/03 A3005 RMK AO2 SLP165 T01220033
KGYR - Goodyear Municip, Arizona, USA
Distance from station: SSW 34mi, 55km
Updated: 03/30/2020 5:55am
Clear
Clear
 Wind from W
Wind: W 6 mph , 9 km/h
Temperature: 52°F , 11°C
Dew Point: 34°F , 1°C
Humidity: 50%
Barometer: 30.07 inHg , 1018.3 hPa
Clouds: Clear
Visibility: 10 miles , 16 km
2020/03/30 12:55 KGYR 301255Z 26005KT 10SM SKC 11/01 A3007 RMK FIRST
 
KFFZ - Mesa/Falcon Fld, Arizona, USA
Distance from station: SE 37mi, 60km
Updated: 03/30/2020 5:54am
Clear
Clear
 Wind from ENE
Wind: ENE 5 mph , 7 km/h
Temperature: 50°F , 10°C
Wind Chill: 48°F , 9°C
Dew Point: 37°F , 3°C
Humidity: 62%
Barometer: 30.07 inHg , 1018.3 hPa
Clouds: Clear
Visibility: 10 miles , 16 km
2020/03/30 12:54 KFFZ 301254Z 06004KT 10SM CLR 10/03 A3007 RMK AO2 SLP167 T01000028
KBXK - Buckeye, Arizona, USA
Distance from station: SW 45mi, 72km
Updated: 03/30/2020 6:15am

 Wind from calm
Wind: Calm
Temperature: 48°F , 9°C
Dew Point: 37°F , 3°C
Humidity: 66%
Barometer: 30.09 inHg , 1019 hPa
Visibility: 10 miles , 16 km
2020/03/30 13:15 KBXK 301315Z AUTO 00000KT 10SM 09/03 A3009 RMK A01
 
KIWA - Chandler/Mesa, Arizona, USA
Distance from station: SE 49mi, 78km
Updated: 03/30/2020 5:55am
Clear
Clear
 Wind from ESE
Wind: ESE 6 mph , 9 km/h
Temperature: 45°F , 7°C
Wind Chill: 42°F , 6°C
Dew Point: 36°F , 2°C
Humidity: 71%
Barometer: 30.08 inHg , 1018.6 hPa
Clouds: Clear
Visibility: 10 miles , 16 km
2020/03/30 12:55 KIWA 301255Z 11005KT 10SM SKC 07/02 A3008
KPAN - Payson, Arizona, USA
Distance from station: ENE 53mi, 85km
Updated: 03/30/2020 6:15am
Clear
Clear
 Wind from calm
Wind: Calm
Temperature: 39°F , 4°C
Dew Point: 21°F , -6°C
Humidity: 48%
Barometer: 30.14 inHg , 1020.7 hPa
Clouds: Clear
Visibility: 10 miles , 16 km
2020/03/30 13:15 KPAN 301315Z AUTO 00000KT 10SM CLR 04/M06 A3014 RMK AO2
 
KPRC - Prescott, Arizona, USA
Distance from station: NNW 56mi, 90km
Updated: 03/30/2020 5:53am
Clear
Clear
 Wind from S
Wind: S 7 mph , 11 km/h
Temperature: 30°F , -1°C
Wind Chill: 23°F , -5°C
Dew Point: 25°F , -4°C
Humidity: 80%
Barometer: 30.12 inHg , 1020 hPa
Clouds: Clear
Visibility: 10 miles , 16 km
2020/03/30 12:53 KPRC 301253Z 19006KT 10SM CLR M01/M04 A3012 RMK AO2 SLP177 T10061039
KCGZ - Casa Granda, Arizona, USA
Distance from station: SSE 67mi, 109km
Updated: 03/30/2020 5:56am
Clear
Clear
 Wind from W
Wind: W 3 mph , 6 km/h
Temperature: 50°F , 10°C
Dew Point: 34°F , 1°C
Humidity: 54%
Barometer: 30.08 inHg , 1018.6 hPa
Clouds: Clear
Visibility: 10 miles , 16 km
2020/03/30 12:56 KCGZ 301256Z AUTO 28003KT 10SM CLR 10/01 A3008 RMK AO2 SLP180 T01000006
 
KSEZ - Sedona, Arizona, USA
Distance from station: NNE 70mi, 113km
Updated: 03/30/2020 6:15am
Clear
Clear
 Wind from NNE
Wind: NNE 7 mph , 11 km/h
Temperature: 41°F , 5°C
Wind Chill: 36°F , 2°C
Dew Point: 27°F , -3°C
Humidity: 57%
Barometer: 30.13 inHg , 1020.3 hPa
Clouds: Clear
Visibility: 10 miles , 16 km
2020/03/30 13:15 KSEZ 301315Z AUTO 03006KT 10SM CLR 05/M03 A3013 RMK AO2
KGXF - Gila Bend (aaf), Arizona, USA
Distance from station: SSW 77mi, 124km
Updated: 03/30/2020 5:58am
Clear
Clear
 Wind from SSE
Wind: SSE 7 mph , 11 km/h
Temperature: 50°F , 10°C
Wind Chill: 47°F , 8°C
Dew Point: 39°F , 4°C
Humidity: 67%
Barometer: 30.07 inHg , 1018.3 hPa
Clouds: Clear
Visibility: 10 miles , 16 km
2020/03/30 12:58 KGXF 301258Z AUTO 15006KT 10SM CLR 10/04 A3007 RMK AO2 SLP177 T00970042 $
 
KP08 - Coolidge Muni, Arizona, USA
Distance from station: SSE 77mi, 124km
Updated: 03/30/2020 6:10am

 
2020/03/30 13:10 KP08 301310Z AUTO RMK AO2 PNO PWINO TSNO
KFLG - Flagstaff, Arizona, USA
Distance from station: NNE 91mi, 146km
Updated: 03/30/2020 5:57am
Clear
Clear
 Wind from S
Wind: S 3 mph , 6 km/h
Temperature: 25°F , -4°C
Dew Point: 19°F , -7°C
Humidity: 80%
Barometer: 30.12 inHg , 1020 hPa
Clouds: Clear
Visibility: 10 miles , 16 km
2020/03/30 12:57 KFLG 301257Z AUTO 19003KT 10SM CLR M04/M07 A3012 RMK AO2 SLP181 T10391067
 
KCMR - Williams Clark, Arizona, USA
Distance from station: N 98mi, 158km
Updated: 03/30/2020 6:15am
Clear
Clear
 Wind from S
Wind: S 6 mph , 9 km/h
Temperature: 23°F , -5°C
Wind Chill: 16°F , -9°C
Dew Point: 19°F , -7°C
Humidity: 86%
Barometer: 30.15 inHg , 1021 hPa
Clouds: Clear
Visibility: 10 miles , 16 km
2020/03/30 13:15 KCMR 301315Z AUTO 17005KT 10SM CLR M05/M07 A3015 RMK AO2